sensor_id;sensor_type;location;lat;lon;timestamp;temperature;humidity
76785;SHT30;66893;44.316;0.092;2023-03-01T00:00:37;12.56;35.42
76785;SHT30;66893;44.316;0.092;2023-03-01T00:03:03;12.55;35.50
76785;SHT30;66893;44.316;0.092;2023-03-01T00:05:28;12.53;35.50
76785;SHT30;66893;44.316;0.092;2023-03-01T00:07:53;12.53;35.51
76785;SHT30;66893;44.316;0.092;2023-03-01T00:10:19;12.52;35.52
76785;SHT30;66893;44.316;0.092;2023-03-01T00:12:44;12.52;35.58
76785;SHT30;66893;44.316;0.092;2023-03-01T00:15:10;12.52;35.61
76785;SHT30;66893;44.316;0.092;2023-03-01T00:17:37;12.50;35.65
76785;SHT30;66893;44.316;0.092;2023-03-01T00:20:03;12.50;35.67
76785;SHT30;66893;44.316;0.092;2023-03-01T00:22:28;12.49;35.73
76785;SHT30;66893;44.316;0.092;2023-03-01T00:24:54;12.48;35.71
76785;SHT30;66893;44.316;0.092;2023-03-01T00:27:19;12.50;35.78
76785;SHT30;66893;44.316;0.092;2023-03-01T00:29:45;12.49;35.81
76785;SHT30;66893;44.316;0.092;2023-03-01T00:32:10;12.45;35.84
76785;SHT30;66893;44.316;0.092;2023-03-01T00:34:36;12.44;35.89
76785;SHT30;66893;44.316;0.092;2023-03-01T00:37:01;12.41;35.87
76785;SHT30;66893;44.316;0.092;2023-03-01T00:39:31;12.42;35.93
76785;SHT30;66893;44.316;0.092;2023-03-01T00:41:57;12.41;35.94
76785;SHT30;66893;44.316;0.092;2023-03-01T00:44:23;12.42;36.00
76785;SHT30;66893;44.316;0.092;2023-03-01T00:46:48;12.38;36.01
76785;SHT30;66893;44.316;0.092;2023-03-01T00:49:14;12.38;36.03
76785;SHT30;66893;44.316;0.092;2023-03-01T00:51:39;12.36;36.06
76785;SHT30;66893;44.316;0.092;2023-03-01T00:54:09;12.36;36.11
76785;SHT30;66893;44.316;0.092;2023-03-01T00:56:35;12.36;36.13
76785;SHT30;66893;44.316;0.092;2023-03-01T00:59:00;12.34;36.14
76785;SHT30;66893;44.316;0.092;2023-03-01T01:01:28;12.34;36.23
76785;SHT30;66893;44.316;0.092;2023-03-01T01:04:00;12.32;36.23
76785;SHT30;66893;44.316;0.092;2023-03-01T01:06:29;12.29;36.27
76785;SHT30;66893;44.316;0.092;2023-03-01T01:08:56;12.28;36.29
76785;SHT30;66893;44.316;0.092;2023-03-01T01:11:25;12.25;36.35
76785;SHT30;66893;44.316;0.092;2023-03-01T01:13:51;12.22;36.34
76785;SHT30;66893;44.316;0.092;2023-03-01T01:16:18;12.21;36.37
76785;SHT30;66893;44.316;0.092;2023-03-01T01:18:45;12.21;36.40
76785;SHT30;66893;44.316;0.092;2023-03-01T01:21:13;12.16;36.43
76785;SHT30;66893;44.316;0.092;2023-03-01T01:23:39;12.16;36.46
76785;SHT30;66893;44.316;0.092;2023-03-01T01:26:11;12.14;36.53
76785;SHT30;66893;44.316;0.092;2023-03-01T01:28:37;12.10;36.51
76785;SHT30;66893;44.316;0.092;2023-03-01T01:31:04;12.11;36.54
76785;SHT30;66893;44.316;0.092;2023-03-01T01:33:29;12.08;36.66
76785;SHT30;66893;44.316;0.092;2023-03-01T01:35:55;12.07;36.66
76785;SHT30;66893;44.316;0.092;2023-03-01T01:38:21;12.07;36.69
76785;SHT30;66893;44.316;0.092;2023-03-01T01:40:48;12.04;36.71
76785;SHT30;66893;44.316;0.092;2023-03-01T01:43:25;12.00;36.73
76785;SHT30;66893;44.316;0.092;2023-03-01T01:45:55;11.98;36.75
76785;SHT30;66893;44.316;0.092;2023-03-01T01:48:24;11.95;36.81
76785;SHT30;66893;44.316;0.092;2023-03-01T01:50:59;11.94;36.79
76785;SHT30;66893;44.316;0.092;2023-03-01T01:53:25;11.93;36.82
76785;SHT30;66893;44.316;0.092;2023-03-01T01:55:56;11.91;36.81
76785;SHT30;66893;44.316;0.092;2023-03-01T01:58:25;11.90;36.83
76785;SHT30;66893;44.316;0.092;2023-03-01T02:00:53;11.84;36.84
76785;SHT30;66893;44.316;0.092;2023-03-01T02:03:23;11.86;36.89
76785;SHT30;66893;44.316;0.092;2023-03-01T02:08:40;11.81;36.90
76785;SHT30;66893;44.316;0.092;2023-03-01T02:11:08;11.79;36.88
76785;SHT30;66893;44.316;0.092;2023-03-01T02:13:35;11.80;36.90
76785;SHT30;66893;44.316;0.092;2023-03-01T02:16:20;11.77;36.90
76785;SHT30;66893;44.316;0.092;2023-03-01T02:18:46;11.76;36.94
76785;SHT30;66893;44.316;0.092;2023-03-01T02:26:51;11.72;36.92
76785;SHT30;66893;44.316;0.092;2023-03-01T02:29:18;11.70;36.94
76785;SHT30;66893;44.316;0.092;2023-03-01T02:31:43;11.67;36.92
76785;SHT30;66893;44.316;0.092;2023-03-01T02:34:16;11.70;36.92
76785;SHT30;66893;44.316;0.092;2023-03-01T02:36:53;11.66;36.93
76785;SHT30;66893;44.316;0.092;2023-03-01T02:39:28;11.66;36.93
76785;SHT30;66893;44.316;0.092;2023-03-01T02:41:56;11.65;36.93
76785;SHT30;66893;44.316;0.092;2023-03-01T02:44:23;11.61;36.95
76785;SHT30;66893;44.316;0.092;2023-03-01T02:46:51;11.62;36.95
76785;SHT30;66893;44.316;0.092;2023-03-01T02:49:27;11.62;36.95
76785;SHT30;66893;44.316;0.092;2023-03-01T02:54:29;11.55;36.91
76785;SHT30;66893;44.316;0.092;2023-03-01T02:56:55;11.56;36.90
76785;SHT30;66893;44.316;0.092;2023-03-01T02:59:25;11.56;36.95
76785;SHT30;66893;44.316;0.092;2023-03-01T03:01:52;11.55;36.92
76785;SHT30;66893;44.316;0.092;2023-03-01T03:04:18;11.53;36.92
76785;SHT30;66893;44.316;0.092;2023-03-01T03:06:46;11.53;36.92
76785;SHT30;66893;44.316;0.092;2023-03-01T03:09:13;11.49;36.88
76785;SHT30;66893;44.316;0.092;2023-03-01T03:11:39;11.46;36.89
76785;SHT30;66893;44.316;0.092;2023-03-01T03:14:07;11.46;36.86
76785;SHT30;66893;44.316;0.092;2023-03-01T03:16:40;11.45;36.88
76785;SHT30;66893;44.316;0.092;2023-03-01T03:19:05;11.47;36.85
76785;SHT30;66893;44.316;0.092;2023-03-01T03:21:34;11.45;36.90
76785;SHT30;66893;44.316;0.092;2023-03-01T03:24:00;11.45;36.85
76785;SHT30;66893;44.316;0.092;2023-03-01T03:26:25;11.43;36.90
76785;SHT30;66893;44.316;0.092;2023-03-01T03:28:51;11.43;36.93
76785;SHT30;66893;44.316;0.092;2023-03-01T03:31:16;11.42;36.93
76785;SHT30;66893;44.316;0.092;2023-03-01T03:33:42;11.40;36.95
76785;SHT30;66893;44.316;0.092;2023-03-01T03:36:08;11.39;37.01
76785;SHT30;66893;44.316;0.092;2023-03-01T03:38:39;11.40;37.05
76785;SHT30;66893;44.316;0.092;2023-03-01T03:41:07;11.38;37.10
76785;SHT30;66893;44.316;0.092;2023-03-01T03:43:35;11.35;37.13
76785;SHT30;66893;44.316;0.092;2023-03-01T03:46:02;11.35;37.16
76785;SHT30;66893;44.316;0.092;2023-03-01T03:48:33;11.35;37.22
76785;SHT30;66893;44.316;0.092;2023-03-01T03:50:58;11.32;37.19
76785;SHT30;66893;44.316;0.092;2023-03-01T03:53:25;11.31;37.14
76785;SHT30;66893;44.316;0.092;2023-03-01T03:55:52;11.31;37.19
76785;SHT30;66893;44.316;0.092;2023-03-01T03:58:19;11.31;37.15
76785;SHT30;66893;44.316;0.092;2023-03-01T04:00:46;11.28;37.18
76785;SHT30;66893;44.316;0.092;2023-03-01T04:03:14;11.28;37.13
76785;SHT30;66893;44.316;0.092;2023-03-01T04:05:41;11.26;37.11
76785;SHT30;66893;44.316;0.092;2023-03-01T04:08:07;11.26;37.09
76785;SHT30;66893;44.316;0.092;2023-03-01T04:10:45;11.25;37.06
76785;SHT30;66893;44.316;0.092;2023-03-01T04:13:12;11.25;37.05
76785;SHT30;66893;44.316;0.092;2023-03-01T04:15:38;11.24;37.05
76785;SHT30;66893;44.316;0.092;2023-03-01T04:18:04;11.22;37.06
76785;SHT30;66893;44.316;0.092;2023-03-01T04:20:32;11.22;37.04
76785;SHT30;66893;44.316;0.092;2023-03-01T04:23:26;11.19;37.03
76785;SHT30;66893;44.316;0.092;2023-03-01T04:25:53;11.19;37.03
76785;SHT30;66893;44.316;0.092;2023-03-01T04:28:31;11.18;37.10
76785;SHT30;66893;44.316;0.092;2023-03-01T04:31:04;11.18;37.13
76785;SHT30;66893;44.316;0.092;2023-03-01T04:33:40;11.17;37.08
76785;SHT30;66893;44.316;0.092;2023-03-01T04:36:07;11.17;37.12
76785;SHT30;66893;44.316;0.092;2023-03-01T04:38:34;11.15;37.19
76785;SHT30;66893;44.316;0.092;2023-03-01T04:41:03;11.11;37.22
76785;SHT30;66893;44.316;0.092;2023-03-01T04:43:28;11.11;37.24
76785;SHT30;66893;44.316;0.092;2023-03-01T04:45:54;11.10;37.30
76785;SHT30;66893;44.316;0.092;2023-03-01T04:48:19;11.11;37.29
76785;SHT30;66893;44.316;0.092;2023-03-01T04:50:45;11.10;37.31
76785;SHT30;66893;44.316;0.092;2023-03-01T04:53:10;11.07;37.37
76785;SHT30;66893;44.316;0.092;2023-03-01T04:55:35;11.11;37.41
76785;SHT30;66893;44.316;0.092;2023-03-01T04:58:01;11.08;37.44
76785;SHT30;66893;44.316;0.092;2023-03-01T05:00:26;11.07;37.44
76785;SHT30;66893;44.316;0.092;2023-03-01T05:02:54;11.07;37.50
76785;SHT30;66893;44.316;0.092;2023-03-01T05:05:30;11.07;37.50
76785;SHT30;66893;44.316;0.092;2023-03-01T05:07:58;11.04;37.50
76785;SHT30;66893;44.316;0.092;2023-03-01T05:10:24;11.03;37.54
76785;SHT30;66893;44.316;0.092;2023-03-01T05:12:50;11.04;37.57
76785;SHT30;66893;44.316;0.092;2023-03-01T05:15:17;11.03;37.57
76785;SHT30;66893;44.316;0.092;2023-03-01T05:17:43;11.03;37.58
76785;SHT30;66893;44.316;0.092;2023-03-01T05:20:09;11.03;37.59
76785;SHT30;66893;44.316;0.092;2023-03-01T05:22:35;11.01;37.65
76785;SHT30;66893;44.316;0.092;2023-03-01T05:25:02;11.03;37.61
76785;SHT30;66893;44.316;0.092;2023-03-01T05:27:27;11.01;37.72
76785;SHT30;66893;44.316;0.092;2023-03-01T05:29:55;10.98;37.65
76785;SHT30;66893;44.316;0.092;2023-03-01T05:32:20;11.00;37.76
76785;SHT30;66893;44.316;0.092;2023-03-01T05:34:46;10.98;37.79
76785;SHT30;66893;44.316;0.092;2023-03-01T05:37:12;11.00;37.75
76785;SHT30;66893;44.316;0.092;2023-03-01T05:39:39;10.96;37.77
76785;SHT30;66893;44.316;0.092;2023-03-01T05:42:04;10.97;37.81
76785;SHT30;66893;44.316;0.092;2023-03-01T05:44:30;10.94;37.84
76785;SHT30;66893;44.316;0.092;2023-03-01T05:46:56;10.94;37.78
76785;SHT30;66893;44.316;0.092;2023-03-01T05:49:22;10.94;37.77
76785;SHT30;66893;44.316;0.092;2023-03-01T05:51:51;10.93;37.75
76785;SHT30;66893;44.316;0.092;2023-03-01T05:54:17;10.93;37.74
76785;SHT30;66893;44.316;0.092;2023-03-01T05:56:44;10.93;37.74
76785;SHT30;66893;44.316;0.092;2023-03-01T05:59:09;10.90;37.76
76785;SHT30;66893;44.316;0.092;2023-03-01T06:01:36;10.93;37.78
76785;SHT30;66893;44.316;0.092;2023-03-01T06:04:02;10.90;37.82
76785;SHT30;66893;44.316;0.092;2023-03-01T06:06:28;10.89;37.87
76785;SHT30;66893;44.316;0.092;2023-03-01T06:08:53;10.87;37.89
76785;SHT30;66893;44.316;0.092;2023-03-01T06:11:20;10.87;37.84
76785;SHT30;66893;44.316;0.092;2023-03-01T06:13:46;10.84;37.83
76785;SHT30;66893;44.316;0.092;2023-03-01T06:16:12;10.83;37.94
76785;SHT30;66893;44.316;0.092;2023-03-01T06:18:38;10.83;37.87
76785;SHT30;66893;44.316;0.092;2023-03-01T06:21:05;10.80;37.94
76785;SHT30;66893;44.316;0.092;2023-03-01T06:23:31;10.83;37.92
76785;SHT30;66893;44.316;0.092;2023-03-01T06:25:56;10.80;38.02
76785;SHT30;66893;44.316;0.092;2023-03-01T06:28:22;10.77;37.99
76785;SHT30;66893;44.316;0.092;2023-03-01T06:30:49;10.76;37.99
76785;SHT30;66893;44.316;0.092;2023-03-01T06:33:14;10.76;38.16
76785;SHT30;66893;44.316;0.092;2023-03-01T06:35:40;10.77;38.14
76785;SHT30;66893;44.316;0.092;2023-03-01T06:38:06;10.76;38.15
76785;SHT30;66893;44.316;0.092;2023-03-01T06:40:32;10.73;38.18
76785;SHT30;66893;44.316;0.092;2023-03-01T06:43:00;10.70;38.24
76785;SHT30;66893;44.316;0.092;2023-03-01T06:45:26;10.67;38.24
76785;SHT30;66893;44.316;0.092;2023-03-01T06:47:52;10.69;38.24
76785;SHT30;66893;44.316;0.092;2023-03-01T06:50:18;10.67;38.28
76785;SHT30;66893;44.316;0.092;2023-03-01T06:52:44;10.67;38.42
76785;SHT30;66893;44.316;0.092;2023-03-01T06:55:11;10.67;38.31
76785;SHT30;66893;44.316;0.092;2023-03-01T06:57:37;10.67;38.39
76785;SHT30;66893;44.316;0.092;2023-03-01T07:00:05;10.67;38.35
76785;SHT30;66893;44.316;0.092;2023-03-01T07:02:31;10.67;38.37
76785;SHT30;66893;44.316;0.092;2023-03-01T07:04:56;10.69;38.35
76785;SHT30;66893;44.316;0.092;2023-03-01T07:07:22;10.69;38.28
76785;SHT30;66893;44.316;0.092;2023-03-01T07:09:48;10.70;38.38
76785;SHT30;66893;44.316;0.092;2023-03-01T07:12:14;10.69;38.31
76785;SHT30;66893;44.316;0.092;2023-03-01T07:14:40;10.69;38.33
76785;SHT30;66893;44.316;0.092;2023-03-01T07:17:06;10.70;38.31
76785;SHT30;66893;44.316;0.092;2023-03-01T07:19:31;10.70;38.35
76785;SHT30;66893;44.316;0.092;2023-03-01T07:21:57;10.71;38.35
76785;SHT30;66893;44.316;0.092;2023-03-01T07:24:22;10.70;38.35
76785;SHT30;66893;44.316;0.092;2023-03-01T07:26:51;10.71;38.37
76785;SHT30;66893;44.316;0.092;2023-03-01T07:29:18;10.70;38.41
76785;SHT30;66893;44.316;0.092;2023-03-01T07:31:44;10.70;38.38
76785;SHT30;66893;44.316;0.092;2023-03-01T07:34:09;10.70;38.39
76785;SHT30;66893;44.316;0.092;2023-03-01T07:36:36;10.70;38.22
76785;SHT30;66893;44.316;0.092;2023-03-01T07:39:02;10.64;38.31
76785;SHT30;66893;44.316;0.092;2023-03-01T07:41:29;10.64;38.43
76785;SHT30;66893;44.316;0.092;2023-03-01T07:43:54;10.67;38.38
76785;SHT30;66893;44.316;0.092;2023-03-01T07:46:20;10.70;38.40
76785;SHT30;66893;44.316;0.092;2023-03-01T07:48:46;10.71;38.37
76785;SHT30;66893;44.316;0.092;2023-03-01T07:51:11;10.73;38.38
76785;SHT30;66893;44.316;0.092;2023-03-01T07:53:37;10.71;38.34
76785;SHT30;66893;44.316;0.092;2023-03-01T07:56:08;10.79;38.36
76785;SHT30;66893;44.316;0.092;2023-03-01T07:58:35;10.76;38.55
76785;SHT30;66893;44.316;0.092;2023-03-01T08:01:02;10.76;38.63
76785;SHT30;66893;44.316;0.092;2023-03-01T08:03:28;10.74;38.63
76785;SHT30;66893;44.316;0.092;2023-03-01T08:05:54;10.73;38.67
76785;SHT30;66893;44.316;0.092;2023-03-01T08:08:19;10.76;38.70
76785;SHT30;66893;44.316;0.092;2023-03-01T08:10:45;10.74;38.70
76785;SHT30;66893;44.316;0.092;2023-03-01T08:13:10;10.76;38.65
76785;SHT30;66893;44.316;0.092;2023-03-01T08:15:35;10.77;38.71
76785;SHT30;66893;44.316;0.092;2023-03-01T08:18:01;10.77;38.68
76785;SHT30;66893;44.316;0.092;2023-03-01T08:20:26;10.79;38.68
76785;SHT30;66893;44.316;0.092;2023-03-01T08:22:52;10.80;38.69
76785;SHT30;66893;44.316;0.092;2023-03-01T08:25:17;10.81;38.67
76785;SHT30;66893;44.316;0.092;2023-03-01T08:27:43;10.81;38.68
76785;SHT30;66893;44.316;0.092;2023-03-01T08:30:09;10.84;38.72
76785;SHT30;66893;44.316;0.092;2023-03-01T08:32:38;10.85;38.72
76785;SHT30;66893;44.316;0.092;2023-03-01T08:35:05;10.87;38.65
76785;SHT30;66893;44.316;0.092;2023-03-01T08:37:30;10.89;38.67
76785;SHT30;66893;44.316;0.092;2023-03-01T08:39:59;10.90;38.67
76785;SHT30;66893;44.316;0.092;2023-03-01T08:42:25;10.93;38.70
76785;SHT30;66893;44.316;0.092;2023-03-01T08:44:51;10.94;38.69
76785;SHT30;66893;44.316;0.092;2023-03-01T08:47:16;10.97;38.66
76785;SHT30;66893;44.316;0.092;2023-03-01T08:49:42;10.97;38.64
76785;SHT30;66893;44.316;0.092;2023-03-01T08:52:07;11.01;38.65
76785;SHT30;66893;44.316;0.092;2023-03-01T08:54:33;11.00;38.67
76785;SHT30;66893;44.316;0.092;2023-03-01T08:57:01;11.04;38.63
76785;SHT30;66893;44.316;0.092;2023-03-01T08:59:27;11.10;38.55
76785;SHT30;66893;44.316;0.092;2023-03-01T09:01:54;11.07;38.41
76785;SHT30;66893;44.316;0.092;2023-03-01T09:04:20;11.10;38.37
76785;SHT30;66893;44.316;0.092;2023-03-01T09:06:45;11.11;38.57
76785;SHT30;66893;44.316;0.092;2023-03-01T09:09:14;11.14;38.78
76785;SHT30;66893;44.316;0.092;2023-03-01T09:11:41;11.17;38.56
76785;SHT30;66893;44.316;0.092;2023-03-01T09:14:07;11.17;38.54
76785;SHT30;66893;44.316;0.092;2023-03-01T09:16:32;11.17;38.59
76785;SHT30;66893;44.316;0.092;2023-03-01T09:19:02;11.21;38.60
76785;SHT30;66893;44.316;0.092;2023-03-01T09:21:28;11.22;38.59
76785;SHT30;66893;44.316;0.092;2023-03-01T09:23:55;11.26;38.58
76785;SHT30;66893;44.316;0.092;2023-03-01T09:26:22;11.26;38.55
76785;SHT30;66893;44.316;0.092;2023-03-01T09:28:53;11.29;38.50
76785;SHT30;66893;44.316;0.092;2023-03-01T09:31:20;11.29;38.50
76785;SHT30;66893;44.316;0.092;2023-03-01T09:33:48;11.34;38.52
76785;SHT30;66893;44.316;0.092;2023-03-01T09:36:16;11.32;38.24
76785;SHT30;66893;44.316;0.092;2023-03-01T09:38:42;11.34;38.12
76785;SHT30;66893;44.316;0.092;2023-03-01T09:43:53;11.34;38.27
76785;SHT30;66893;44.316;0.092;2023-03-01T09:46:23;11.35;38.30
76785;SHT30;66893;44.316;0.092;2023-03-01T09:48:59;11.42;38.30
76785;SHT30;66893;44.316;0.092;2023-03-01T09:51:30;11.43;38.24
76785;SHT30;66893;44.316;0.092;2023-03-01T09:53:57;11.47;38.16
76785;SHT30;66893;44.316;0.092;2023-03-01T09:57:16;11.51;38.14
76785;SHT30;66893;44.316;0.092;2023-03-01T09:59:37;11.53;38.02
76785;SHT30;66893;44.316;0.092;2023-03-01T10:02:23;11.56;38.02
76785;SHT30;66893;44.316;0.092;2023-03-01T10:04:52;11.62;37.92
76785;SHT30;66893;44.316;0.092;2023-03-01T10:07:45;11.62;37.88
76785;SHT30;66893;44.316;0.092;2023-03-01T10:10:27;11.65;37.79
76785;SHT30;66893;44.316;0.092;2023-03-01T10:12:53;11.69;37.75
76785;SHT30;66893;44.316;0.092;2023-03-01T10:15:34;11.72;37.74
76785;SHT30;66893;44.316;0.092;2023-03-01T10:18:16;11.73;37.68
76785;SHT30;66893;44.316;0.092;2023-03-01T10:21:03;11.77;37.55
76785;SHT30;66893;44.316;0.092;2023-03-01T10:23:32;11.81;37.43
76785;SHT30;66893;44.316;0.092;2023-03-01T10:26:18;11.84;37.17
76785;SHT30;66893;44.316;0.092;2023-03-01T10:31:23;11.91;37.07
76785;SHT30;66893;44.316;0.092;2023-03-01T10:33:53;11.94;37.05
76785;SHT30;66893;44.316;0.092;2023-03-01T10:36:21;12.00;37.03
76785;SHT30;66893;44.316;0.092;2023-03-01T10:38:49;12.02;37.04
76785;SHT30;66893;44.316;0.092;2023-03-01T10:41:17;12.07;36.83
76785;SHT30;66893;44.316;0.092;2023-03-01T10:46:34;12.18;37.36
76785;SHT30;66893;44.316;0.092;2023-03-01T10:49:20;12.25;37.23
76785;SHT30;66893;44.316;0.092;2023-03-01T10:51:48;12.32;37.25
76785;SHT30;66893;44.316;0.092;2023-03-01T10:54:20;12.41;37.20
76785;SHT30;66893;44.316;0.092;2023-03-01T10:56:52;12.48;37.11
76785;SHT30;66893;44.316;0.092;2023-03-01T10:59:36;12.55;36.92
76785;SHT30;66893;44.316;0.092;2023-03-01T11:04:27;12.70;36.80
76785;SHT30;66893;44.316;0.092;2023-03-01T11:07:00;12.77;36.69
76785;SHT30;66893;44.316;0.092;2023-03-01T11:09:31;12.82;36.68
76785;SHT30;66893;44.316;0.092;2023-03-01T11:12:03;12.91;36.62
76785;SHT30;66893;44.316;0.092;2023-03-01T11:14:36;13.00;36.81
76785;SHT30;66893;44.316;0.092;2023-03-01T11:17:11;13.11;36.73
76785;SHT30;66893;44.316;0.092;2023-03-01T11:19:38;13.21;36.64
76785;SHT30;66893;44.316;0.092;2023-03-01T11:22:17;13.35;36.60
76785;SHT30;66893;44.316;0.092;2023-03-01T11:24:51;13.45;36.51
76785;SHT30;66893;44.316;0.092;2023-03-01T11:30:15;13.72;36.79
76785;SHT30;66893;44.316;0.092;2023-03-01T11:32:50;13.84;36.63
76785;SHT30;66893;44.316;0.092;2023-03-01T11:35:23;13.94;36.81
76785;SHT30;66893;44.316;0.092;2023-03-01T11:37:59;14.09;36.42
76785;SHT30;66893;44.316;0.092;2023-03-01T11:40:33;14.21;36.63
76785;SHT30;66893;44.316;0.092;2023-03-01T11:50:57;14.82;36.41
76785;SHT30;66893;44.316;0.092;2023-03-01T11:53:34;14.93;36.28
76785;SHT30;66893;44.316;0.092;2023-03-01T12:07:38;15.72;35.83
76785;SHT30;66893;44.316;0.092;2023-03-01T12:18:21;16.42;35.46
76785;SHT30;66893;44.316;0.092;2023-03-01T12:23:50;16.76;35.28
76785;SHT30;66893;44.316;0.092;2023-03-01T12:26:33;16.96;35.14
76785;SHT30;66893;44.316;0.092;2023-03-01T12:32:25;17.31;34.96
76785;SHT30;66893;44.316;0.092;2023-03-01T12:35:00;17.50;34.83
76785;SHT30;66893;44.316;0.092;2023-03-01T12:37:54;17.67;34.82
76785;SHT30;66893;44.316;0.092;2023-03-01T12:43:15;18.03;34.64
76785;SHT30;66893;44.316;0.092;2023-03-01T12:46:46;18.20;34.48
76785;SHT30;66893;44.316;0.092;2023-03-01T12:51:14;18.59;34.19
76785;SHT30;66893;44.316;0.092;2023-03-01T12:53:44;18.78;34.16
76785;SHT30;66893;44.316;0.092;2023-03-01T12:56:15;18.96;34.17
76785;SHT30;66893;44.316;0.092;2023-03-01T12:59:01;19.14;34.03
76785;SHT30;66893;44.316;0.092;2023-03-01T13:17:49;20.50;32.91
76785;SHT30;66893;44.316;0.092;2023-03-01T13:20:17;20.68;32.92
76785;SHT30;66893;44.316;0.092;2023-03-01T13:22:45;20.87;32.71
76785;SHT30;66893;44.316;0.092;2023-03-01T13:25:17;21.05;32.57
76785;SHT30;66893;44.316;0.092;2023-03-01T13:27:44;21.23;32.45
76785;SHT30;66893;44.316;0.092;2023-03-01T13:35:54;20.91;31.06
76785;SHT30;66893;44.316;0.092;2023-03-01T13:38:44;20.60;31.00
76785;SHT30;66893;44.316;0.092;2023-03-01T13:41:12;20.34;30.42
76785;SHT30;66893;44.316;0.092;2023-03-01T13:43:41;20.26;30.59
76785;SHT30;66893;44.316;0.092;2023-03-01T13:46:18;20.20;30.70
76785;SHT30;66893;44.316;0.092;2023-03-01T13:48:52;20.19;30.18
76785;SHT30;66893;44.316;0.092;2023-03-01T13:51:24;20.22;30.38
76785;SHT30;66893;44.316;0.092;2023-03-01T13:53:51;20.30;30.25
76785;SHT30;66893;44.316;0.092;2023-03-01T13:56:23;20.44;30.19
76785;SHT30;66893;44.316;0.092;2023-03-01T13:58:58;20.55;30.40
76785;SHT30;66893;44.316;0.092;2023-03-01T14:01:30;20.68;30.11
76785;SHT30;66893;44.316;0.092;2023-03-01T14:03:56;20.81;29.72
76785;SHT30;66893;44.316;0.092;2023-03-01T14:06:25;21.05;30.31
76785;SHT30;66893;44.316;0.092;2023-03-01T14:09:01;21.85;29.51
76785;SHT30;66893;44.316;0.092;2023-03-01T14:18:10;22.60;28.80
76785;SHT30;66893;44.316;0.092;2023-03-01T14:20:40;22.30;29.19
76785;SHT30;66893;44.316;0.092;2023-03-01T14:23:12;22.12;29.59
76785;SHT30;66893;44.316;0.092;2023-03-01T14:25:47;22.04;29.65
76785;SHT30;66893;44.316;0.092;2023-03-01T14:30:48;23.04;29.23
76785;SHT30;66893;44.316;0.092;2023-03-01T14:33:32;23.60;28.94
76785;SHT30;66893;44.316;0.092;2023-03-01T14:36:09;23.73;28.64
76785;SHT30;66893;44.316;0.092;2023-03-01T14:38:38;23.74;28.18
76785;SHT30;66893;44.316;0.092;2023-03-01T14:41:18;24.02;28.54
76785;SHT30;66893;44.316;0.092;2023-03-01T14:43:47;24.70;28.19
76785;SHT30;66893;44.316;0.092;2023-03-01T14:48:51;25.39;27.22
76785;SHT30;66893;44.316;0.092;2023-03-01T14:51:16;25.76;27.51
76785;SHT30;66893;44.316;0.092;2023-03-01T14:53:42;26.49;27.11
76785;SHT30;66893;44.316;0.092;2023-03-01T14:56:14;27.14;26.71
76785;SHT30;66893;44.316;0.092;2023-03-01T14:58:43;27.35;26.36
76785;SHT30;66893;44.316;0.092;2023-03-01T15:01:15;27.58;26.27
76785;SHT30;66893;44.316;0.092;2023-03-01T15:03:46;27.37;26.22
76785;SHT30;66893;44.316;0.092;2023-03-01T15:06:18;26.86;26.38
76785;SHT30;66893;44.316;0.092;2023-03-01T15:08:47;26.32;26.68
76785;SHT30;66893;44.316;0.092;2023-03-01T15:11:30;25.77;26.93
76785;SHT30;66893;44.316;0.092;2023-03-01T15:13:56;25.26;27.16
76785;SHT30;66893;44.316;0.092;2023-03-01T15:16:27;24.88;27.49
76785;SHT30;66893;44.316;0.092;2023-03-01T15:18:56;24.59;27.48
76785;SHT30;66893;44.316;0.092;2023-03-01T15:21:43;24.29;27.66
76785;SHT30;66893;44.316;0.092;2023-03-01T15:26:49;23.87;27.85
76785;SHT30;66893;44.316;0.092;2023-03-01T15:29:22;23.78;27.84
76785;SHT30;66893;44.316;0.092;2023-03-01T15:34:48;23.73;27.93
76785;SHT30;66893;44.316;0.092;2023-03-01T15:37:45;24.00;27.95
76785;SHT30;66893;44.316;0.092;2023-03-01T15:40:28;24.80;27.48
76785;SHT30;66893;44.316;0.092;2023-03-01T15:43:04;25.72;27.17
76785;SHT30;66893;44.316;0.092;2023-03-01T15:45:32;26.62;26.65
76785;SHT30;66893;44.316;0.092;2023-03-01T15:48:04;27.51;26.11
76785;SHT30;66893;44.316;0.092;2023-03-01T15:50:33;27.99;25.74
76785;SHT30;66893;44.316;0.092;2023-03-01T15:53:00;28.04;25.51
76785;SHT30;66893;44.316;0.092;2023-03-01T15:55:31;28.47;25.18
76785;SHT30;66893;44.316;0.092;2023-03-01T15:58:09;29.02;24.87
76785;SHT30;66893;44.316;0.092;2023-03-01T16:00:35;29.37;24.45
76785;SHT30;66893;44.316;0.092;2023-03-01T16:03:00;29.37;24.61
76785;SHT30;66893;44.316;0.092;2023-03-01T16:05:32;28.99;24.38
76785;SHT30;66893;44.316;0.092;2023-03-01T16:07:59;28.62;24.53
76785;SHT30;66893;44.316;0.092;2023-03-01T16:10:26;28.27;24.62
76785;SHT30;66893;44.316;0.092;2023-03-01T16:12:52;27.97;24.66
76785;SHT30;66893;44.316;0.092;2023-03-01T16:15:35;27.69;24.77
76785;SHT30;66893;44.316;0.092;2023-03-01T16:18:01;27.39;24.75
76785;SHT30;66893;44.316;0.092;2023-03-01T16:20:28;27.12;24.90
76785;SHT30;66893;44.316;0.092;2023-03-01T16:22:57;26.83;24.92
76785;SHT30;66893;44.316;0.092;2023-03-01T16:25:23;26.52;25.08
76785;SHT30;66893;44.316;0.092;2023-03-01T16:27:50;26.16;25.28
76785;SHT30;66893;44.316;0.092;2023-03-01T16:30:18;25.73;25.41
76785;SHT30;66893;44.316;0.092;2023-03-01T16:32:45;25.15;25.45
76785;SHT30;66893;44.316;0.092;2023-03-01T16:35:13;24.69;25.53
76785;SHT30;66893;44.316;0.092;2023-03-01T16:37:39;24.32;25.69
76785;SHT30;66893;44.316;0.092;2023-03-01T16:40:14;24.02;25.95
76785;SHT30;66893;44.316;0.092;2023-03-01T16:42:41;23.73;26.12
76785;SHT30;66893;44.316;0.092;2023-03-01T16:45:07;23.52;26.33
76785;SHT30;66893;44.316;0.092;2023-03-01T16:47:34;23.33;26.47
76785;SHT30;66893;44.316;0.092;2023-03-01T16:49:59;23.19;26.53
76785;SHT30;66893;44.316;0.092;2023-03-01T16:52:25;23.07;26.71
76785;SHT30;66893;44.316;0.092;2023-03-01T16:54:50;22.91;26.72
76785;SHT30;66893;44.316;0.092;2023-03-01T16:57:16;22.98;26.86
76785;SHT30;66893;44.316;0.092;2023-03-01T16:59:41;23.11;26.81
76785;SHT30;66893;44.316;0.092;2023-03-01T17:02:10;23.20;26.75
76785;SHT30;66893;44.316;0.092;2023-03-01T17:04:36;23.29;26.79
76785;SHT30;66893;44.316;0.092;2023-03-01T17:07:02;23.36;26.66
76785;SHT30;66893;44.316;0.092;2023-03-01T17:09:28;23.41;26.69
76785;SHT30;66893;44.316;0.092;2023-03-01T17:11:53;23.32;26.79
76785;SHT30;66893;44.316;0.092;2023-03-01T17:14:20;23.25;26.73
76785;SHT30;66893;44.316;0.092;2023-03-01T17:16:46;23.16;26.75
76785;SHT30;66893;44.316;0.092;2023-03-01T17:19:12;23.01;26.80
76785;SHT30;66893;44.316;0.092;2023-03-01T17:21:43;22.81;26.86
76785;SHT30;66893;44.316;0.092;2023-03-01T17:24:09;22.57;26.98